Time,TemperatureF,DewpointF,PressureIn,WindDirection,WindDirectionDegrees,WindSpeedMPH,WindSpeedGustMPH,Humidity,HourlyPrecipIn,Conditions,Clouds,dailyrainin,SoftwareType,DateUTC
2015-02-28 00:02:00,15.6,-2.4,0.00,South,173,0.0,0.0,44,0.00,,---,0.00,VWS V15.00,2015-02-28 05:02:00,
2015-02-28 00:07:00,15.4,-2.6,0.00,SSE,166,0.0,0.0,44,0.00,,---,0.00,VWS V15.00,2015-02-28 05:07:00,
2015-02-28 00:13:00,15.4,-2.6,0.00,SSE,160,0.0,0.0,44,0.00,,---,0.00,VWS V15.00,2015-02-28 05:13:00,
2015-02-28 00:18:00,15.3,-2.7,0.00,SSE,160,2.7,2.7,44,0.00,,---,0.00,VWS V15.00,2015-02-28 05:18:00,
2015-02-28 00:23:00,14.9,-3.1,0.00,SSE,165,0.0,0.0,44,0.00,,---,0.00,VWS V15.00,2015-02-28 05:23:00,
2015-02-28 00:28:00,14.7,-3.2,0.00,SSE,165,0.0,0.0,44,0.00,,---,0.00,VWS V15.00,2015-02-28 05:28:00,
2015-02-28 00:33:00,14.5,-3.4,0.00,SSE,165,0.0,0.0,44,0.00,,---,0.00,VWS V15.00,2015-02-28 05:33:00,
2015-02-28 00:38:00,14.5,-3.4,0.00,SSE,165,0.0,0.0,44,0.00,,---,0.00,VWS V15.00,2015-02-28 05:38:00,
2015-02-28 00:43:00,14.5,-3.4,0.00,SSE,165,0.0,0.0,44,0.00,,---,0.00,VWS V15.00,2015-02-28 05:43:00,
2015-02-28 00:48:00,14.2,-3.7,0.00,SSE,165,0.0,0.0,44,0.00,,---,0.00,VWS V15.00,2015-02-28 05:48:00,
2015-02-28 00:53:00,13.8,-4.1,0.00,SSE,165,0.0,0.0,44,0.00,,---,0.00,VWS V15.00,2015-02-28 05:53:00,
2015-02-28 00:58:00,13.6,-4.2,0.00,SSE,165,0.0,0.0,44,0.00,,---,0.00,VWS V15.00,2015-02-28 05:58:00,
2015-02-28 01:03:00,13.5,-4.4,0.00,SSE,165,0.0,0.0,44,0.00,,---,0.00,VWS V15.00,2015-02-28 06:03:00,
2015-02-28 01:08:00,13.1,-4.7,0.00,SSE,165,0.0,0.0,44,0.00,,---,0.00,VWS V15.00,2015-02-28 06:08:00,
2015-02-28 01:13:00,12.7,-5.0,0.00,SSE,165,0.0,0.0,44,0.00,,---,0.00,VWS V15.00,2015-02-28 06:13:00,
2015-02-28 01:18:00,12.7,-5.0,0.00,SSE,165,0.0,0.0,44,0.00,,---,0.00,VWS V15.00,2015-02-28 06:18:00,
2015-02-28 01:23:00,12.6,-5.2,0.00,SSE,165,0.0,0.0,44,0.00,,---,0.00,VWS V15.00,2015-02-28 06:23:00,
2015-02-28 01:28:00,12.6,-5.2,0.00,SSE,165,0.0,0.0,44,0.00,,---,0.00,VWS V15.00,2015-02-28 06:28:00,
2015-02-28 01:33:00,12.4,-5.4,0.00,SSE,165,0.0,0.0,44,0.00,,---,0.00,VWS V15.00,2015-02-28 06:33:00,
2015-02-28 01:39:00,12.4,-5.4,0.00,SSE,165,0.0,0.0,44,0.00,,---,0.00,VWS V15.00,2015-02-28 06:39:00,
2015-02-28 01:44:00,12.6,-5.2,0.00,SSE,165,0.0,0.0,44,0.00,,---,0.00,VWS V15.00,2015-02-28 06:44:00,
2015-02-28 01:49:00,13.6,-4.2,0.00,SSE,165,0.0,0.0,44,0.00,,---,0.00,VWS V15.00,2015-02-28 06:49:00,
2015-02-28 01:54:00,14.0,-3.9,0.00,SSE,165,0.0,0.0,44,0.00,,---,0.00,VWS V15.00,2015-02-28 06:54:00,
2015-02-28 01:59:00,14.0,-3.9,0.00,SSE,165,0.0,0.0,44,0.00,,---,0.00,VWS V15.00,2015-02-28 06:59:00,
2015-02-28 02:04:00,13.8,-4.1,0.00,SSE,165,0.0,0.0,44,0.00,,---,0.00,VWS V15.00,2015-02-28 07:04:00,
2015-02-28 02:09:00,13.5,-4.4,0.00,SSE,165,0.0,0.0,44,0.00,,---,0.00,VWS V15.00,2015-02-28 07:09:00,
2015-02-28 02:14:00,13.5,-4.4,0.00,SSE,165,0.0,0.0,44,0.00,,---,0.00,VWS V15.00,2015-02-28 07:14:00,
2015-02-28 02:19:00,13.5,-4.4,0.00,SSE,165,0.0,0.0,44,0.00,,---,0.00,VWS V15.00,2015-02-28 07:19:00,
2015-02-28 02:24:00,13.5,-4.4,0.00,SSE,165,0.0,0.0,44,0.00,,---,0.00,VWS V15.00,2015-02-28 07:24:00,
2015-02-28 02:29:00,12.9,-4.9,0.00,SSE,165,0.0,0.0,44,0.00,,---,0.00,VWS V15.00,2015-02-28 07:29:00,
2015-02-28 02:34:00,12.9,-4.9,0.00,SSE,165,0.0,0.0,44,0.00,,---,0.00,VWS V15.00,2015-02-28 07:34:00,
2015-02-28 02:39:00,12.0,-5.7,0.00,SSE,165,0.0,0.0,44,0.00,,---,0.00,VWS V15.00,2015-02-28 07:39:00,
2015-02-28 02:44:00,11.8,-5.9,0.00,SSE,165,0.0,0.0,44,0.00,,---,0.00,VWS V15.00,2015-02-28 07:44:00,
2015-02-28 02:50:00,11.8,-5.9,0.00,SSE,165,0.0,0.0,44,0.00,,---,0.00,VWS V15.00,2015-02-28 07:50:00,
2015-02-28 02:55:00,12.6,-5.2,0.00,SSE,165,0.0,0.0,44,0.00,,---,0.00,VWS V15.00,2015-02-28 07:55:00,
2015-02-28 03:00:00,12.6,-5.2,0.00,SSE,165,0.0,0.0,44,0.00,,---,0.00,VWS V15.00,2015-02-28 08:00:00,
2015-02-28 03:05:00,13.3,-4.6,0.00,SSE,165,0.0,0.0,44,0.00,,---,0.00,VWS V15.00,2015-02-28 08:05:00,
2015-02-28 03:10:00,13.3,-4.6,0.00,SSE,165,0.0,0.0,44,0.00,,---,0.00,VWS V15.00,2015-02-28 08:10:00,
2015-02-28 03:15:00,13.3,-4.6,0.00,SSE,165,0.0,0.0,44,0.00,,---,0.00,VWS V15.00,2015-02-28 08:15:00,
2015-02-28 03:20:00,14.4,-3.6,0.00,SSE,165,0.0,0.0,44,0.00,,---,0.00,VWS V15.00,2015-02-28 08:20:00,
2015-02-28 03:25:00,14.5,-3.4,0.00,SSE,165,0.0,0.0,44,0.00,,---,0.00,VWS V15.00,2015-02-28 08:25:00,
2015-02-28 03:30:00,14.7,-3.2,0.00,SSE,165,0.0,0.0,44,0.00,,---,0.00,VWS V15.00,2015-02-28 08:30:00,
2015-02-28 03:35:00,14.7,-3.2,0.00,SSE,165,0.0,0.0,44,0.00,,---,0.00,VWS V15.00,2015-02-28 08:35:00,
2015-02-28 03:40:00,14.5,-3.4,0.00,SSE,165,0.0,0.0,44,0.00,,---,0.00,VWS V15.00,2015-02-28 08:40:00,
2015-02-28 03:45:00,14.5,-3.4,0.00,SSE,165,0.0,0.0,44,0.00,,---,0.00,VWS V15.00,2015-02-28 08:45:00,
2015-02-28 03:50:00,14.2,-3.7,0.00,SSE,165,0.0,0.0,44,0.00,,---,0.00,VWS V15.00,2015-02-28 08:50:00,
2015-02-28 03:55:00,14.2,-3.7,0.00,SSE,165,0.0,0.0,44,0.00,,---,0.00,VWS V15.00,2015-02-28 08:55:00,
2015-02-28 04:00:00,13.8,-4.1,0.00,SSE,165,0.0,0.0,44,0.00,,---,0.00,VWS V15.00,2015-02-28 09:00:00,
2015-02-28 04:05:00,13.5,-4.4,0.00,SSE,165,0.0,0.0,44,0.00,,---,0.00,VWS V15.00,2015-02-28 09:05:00,
2015-02-28 04:10:00,13.5,-4.4,0.00,SSE,165,0.0,0.0,44,0.00,,---,0.00,VWS V15.00,2015-02-28 09:10:00,
2015-02-28 04:15:00,13.5,-4.4,0.00,SSE,165,0.0,0.0,44,0.00,,---,0.00,VWS V15.00,2015-02-28 09:15:00,
2015-02-28 04:20:00,13.5,-4.4,0.00,SSE,165,0.0,0.0,44,0.00,,---,0.00,VWS V15.00,2015-02-28 09:20:00,
2015-02-28 04:25:00,12.9,-4.9,0.00,SSE,165,0.0,0.0,44,0.00,,---,0.00,VWS V15.00,2015-02-28 09:25:00,
2015-02-28 04:30:00,12.9,-4.9,0.00,SSE,165,0.0,0.0,44,0.00,,---,0.00,VWS V15.00,2015-02-28 09:30:00,
2015-02-28 04:35:00,12.6,-5.2,0.00,SSE,165,0.0,0.0,44,0.00,,---,0.00,VWS V15.00,2015-02-28 09:35:00,
2015-02-28 04:40:00,12.6,-5.2,0.00,SSE,165,0.0,0.0,44,0.00,,---,0.00,VWS V15.00,2015-02-28 09:40:00,
2015-02-28 04:45:00,12.2,-5.5,0.00,SSE,165,0.0,0.0,44,0.00,,---,0.00,VWS V15.00,2015-02-28 09:45:00,
2015-02-28 04:50:00,11.8,-5.9,0.00,SSE,165,0.0,0.0,44,0.00,,---,0.00,VWS V15.00,2015-02-28 09:50:00,
2015-02-28 04:55:00,11.1,-6.5,0.00,SSE,165,0.0,0.0,44,0.00,,---,0.00,VWS V15.00,2015-02-28 09:55:00,
2015-02-28 05:00:00,10.6,-7.0,0.00,SSE,165,0.0,0.0,44,0.00,,---,0.00,VWS V15.00,2015-02-28 10:00:00,
2015-02-28 05:05:00,10.6,-7.0,0.00,SSE,165,0.0,0.0,44,0.00,,---,0.00,VWS V15.00,2015-02-28 10:05:00,
2015-02-28 05:10:00,10.2,-7.3,0.00,SSE,165,0.0,0.0,44,0.00,,---,0.00,VWS V15.00,2015-02-28 10:10:00,
2015-02-28 05:15:00,10.0,-7.5,0.00,SSE,165,0.0,0.0,44,0.00,,---,0.00,VWS V15.00,2015-02-28 10:15:00,
2015-02-28 05:20:00,10.0,-7.5,0.00,SSE,165,0.0,0.0,44,0.00,,---,0.00,VWS V15.00,2015-02-28 10:20:00,
2015-02-28 05:25:00,10.2,-7.3,0.00,SSE,165,0.0,0.0,44,0.00,,---,0.00,VWS V15.00,2015-02-28 10:25:00,
2015-02-28 05:30:00,9.9,-7.7,0.00,SSE,165,0.0,0.0,44,0.00,,---,0.00,VWS V15.00,2015-02-28 10:30:00,
2015-02-28 05:35:00,9.5,-8.0,0.00,SSE,165,0.0,0.0,44,0.00,,---,0.00,VWS V15.00,2015-02-28 10:35:00,
2015-02-28 05:40:00,9.3,-8.2,0.00,SSE,165,0.0,0.0,44,0.00,,---,0.00,VWS V15.00,2015-02-28 10:40:00,
2015-02-28 05:45:00,9.3,-8.2,0.00,SSE,165,0.0,0.0,44,0.00,,---,0.00,VWS V15.00,2015-02-28 10:45:00,
2015-02-28 05:51:00,9.1,-8.3,0.00,SSE,165,0.0,0.0,44,0.00,,---,0.00,VWS V15.00,2015-02-28 10:51:00,
2015-02-28 05:56:00,8.8,-8.7,0.00,SSE,165,0.0,0.0,44,0.00,,---,0.00,VWS V15.00,2015-02-28 10:56:00,
2015-02-28 06:01:00,8.8,-8.7,0.00,SSE,165,0.0,0.0,44,0.00,,---,0.00,VWS V15.00,2015-02-28 11:01:00,
2015-02-28 06:06:00,8.8,-8.7,0.00,SSE,165,0.0,0.0,44,0.00,,---,0.00,VWS V15.00,2015-02-28 11:06:00,
2015-02-28 06:11:00,8.6,-8.8,0.00,SSE,165,0.0,0.0,44,0.00,,---,0.00,VWS V15.00,2015-02-28 11:11:00,
2015-02-28 06:16:00,8.6,-8.8,0.00,SSE,165,0.0,0.0,44,0.00,,---,0.00,VWS V15.00,2015-02-28 11:16:00,
2015-02-28 06:21:00,8.4,-9.0,0.00,SSE,165,0.0,0.0,44,0.00,,---,0.00,VWS V15.00,2015-02-28 11:21:00,
2015-02-28 06:27:00,8.1,-9.3,0.00,SSE,165,0.0,0.0,44,0.00,,---,0.00,VWS V15.00,2015-02-28 11:27:00,
2015-02-28 06:32:00,8.1,-9.3,0.00,SSE,165,0.0,0.0,44,0.00,,---,0.00,VWS V15.00,2015-02-28 11:32:00,
2015-02-28 06:37:00,7.9,-9.5,0.00,SSE,165,0.0,0.0,44,0.00,,---,0.00,VWS V15.00,2015-02-28 11:37:00,
2015-02-28 06:42:00,7.5,-9.8,0.00,SSE,165,0.0,0.0,44,0.00,,---,0.00,VWS V15.00,2015-02-28 11:42:00,
2015-02-28 06:47:00,7.5,-9.8,0.00,SSE,165,0.0,0.0,44,0.00,,---,0.00,VWS V15.00,2015-02-28 11:47:00,
2015-02-28 06:52:00,7.5,-9.8,0.00,SSE,165,0.0,0.0,44,0.00,,---,0.00,VWS V15.00,2015-02-28 11:52:00,
2015-02-28 06:57:00,7.5,-9.8,0.00,SSE,165,0.0,0.0,44,0.00,,---,0.00,VWS V15.00,2015-02-28 11:57:00,
2015-02-28 07:02:00,7.7,-9.7,0.00,SSE,165,0.0,0.0,44,0.00,,---,0.00,VWS V15.00,2015-02-28 12:02:00,
2015-02-28 07:07:00,7.7,-9.7,0.00,SSE,165,0.0,0.0,44,0.00,,---,0.00,VWS V15.00,2015-02-28 12:07:00,
2015-02-28 07:12:00,7.7,-9.7,0.00,SSE,165,0.0,0.0,44,0.00,,---,0.00,VWS V15.00,2015-02-28 12:12:00,
2015-02-28 07:18:00,7.7,-9.7,0.00,SSE,165,0.0,0.0,44,0.00,,---,0.00,VWS V15.00,2015-02-28 12:18:00,
2015-02-28 07:23:00,8.1,-9.3,0.00,SSE,165,0.0,0.0,44,0.00,,---,0.00,VWS V15.00,2015-02-28 12:23:00,
2015-02-28 07:28:00,8.4,-9.0,0.00,SSE,165,0.0,0.0,44,0.00,,---,0.00,VWS V15.00,2015-02-28 12:28:00,
2015-02-28 07:33:00,8.8,-8.7,0.00,SSE,165,0.0,0.0,44,0.00,,---,0.00,VWS V15.00,2015-02-28 12:33:00,
2015-02-28 07:38:00,9.1,-8.3,0.00,SSE,165,0.0,0.0,44,0.00,,---,0.00,VWS V15.00,2015-02-28 12:38:00,
2015-02-28 07:43:00,9.5,-8.0,0.00,SSE,165,0.0,0.0,44,0.00,,---,0.00,VWS V15.00,2015-02-28 12:43:00,
2015-02-28 07:48:00,10.2,-7.3,0.00,SSE,165,0.0,0.0,44,0.00,,---,0.00,VWS V15.00,2015-02-28 12:48:00,
2015-02-28 07:54:00,10.8,-6.8,0.00,SSE,165,0.0,0.0,44,0.00,,---,0.00,VWS V15.00,2015-02-28 12:54:00,
2015-02-28 07:59:00,11.5,-6.2,0.00,SSE,165,0.0,0.0,44,0.00,,---,0.00,VWS V15.00,2015-02-28 12:59:00,
2015-02-28 08:05:00,11.8,-5.9,0.00,SSE,165,0.0,0.0,44,0.00,,---,0.00,VWS V15.00,2015-02-28 13:05:00,
2015-02-28 08:10:00,12.2,-5.5,0.00,SSE,165,0.0,0.0,44,0.00,,---,0.00,VWS V15.00,2015-02-28 13:10:00,
2015-02-28 08:15:00,12.9,-4.9,0.00,SSE,165,0.0,0.0,44,0.00,,---,0.00,VWS V15.00,2015-02-28 13:15:00,
2015-02-28 08:20:00,13.8,-4.1,0.00,SSE,165,0.0,0.0,44,0.00,,---,0.00,VWS V15.00,2015-02-28 13:20:00,
2015-02-28 08:25:00,14.9,-3.1,0.00,SSE,165,0.0,0.0,44,0.00,,---,0.00,VWS V15.00,2015-02-28 13:25:00,
2015-02-28 08:30:00,15.3,-2.7,0.00,South,174,0.0,0.0,44,0.00,,---,0.00,VWS V15.00,2015-02-28 13:30:00,
2015-02-28 08:35:00,16.0,-2.1,0.00,SSE,151,0.0,0.0,44,0.00,,---,0.00,VWS V15.00,2015-02-28 13:35:00,
2015-02-28 08:40:00,16.2,-1.9,0.00,SSE,151,0.0,0.0,44,0.00,,---,0.00,VWS V15.00,2015-02-28 13:40:00,
2015-02-28 08:45:00,16.7,-1.4,0.00,South,171,0.0,0.0,44,0.00,,---,0.00,VWS V15.00,2015-02-28 13:45:00,
2015-02-28 08:50:00,16.9,-1.2,0.00,South,171,0.0,0.0,44,0.00,,---,0.00,VWS V15.00,2015-02-28 13:50:00,
2015-02-28 08:55:00,17.2,-0.9,0.00,South,171,0.0,0.0,44,0.00,,---,0.00,VWS V15.00,2015-02-28 13:55:00,
2015-02-28 09:00:00,17.4,-0.8,0.00,South,171,0.0,0.0,44,0.00,,---,0.00,VWS V15.00,2015-02-28 14:00:00,
2015-02-28 09:05:00,17.8,-0.9,0.00,SSE,165,0.0,0.0,43,0.00,,---,0.00,VWS V15.00,2015-02-28 14:05:00,
2015-02-28 09:10:00,17.8,-0.9,0.00,SSE,165,0.0,0.0,43,0.00,,---,0.00,VWS V15.00,2015-02-28 14:10:00,
2015-02-28 09:15:00,18.1,-0.6,0.00,SSE,165,0.0,0.0,43,0.00,,---,0.00,VWS V15.00,2015-02-28 14:15:00,
2015-02-28 09:21:00,18.3,-0.4,0.00,SSE,166,0.0,0.0,43,0.00,,---,0.00,VWS V15.00,2015-02-28 14:21:00,
2015-02-28 09:26:00,18.5,-0.3,0.00,South,190,0.0,0.0,43,0.00,,---,0.00,VWS V15.00,2015-02-28 14:26:00,
2015-02-28 09:31:00,18.3,-0.4,0.00,SSE,159,0.0,2.2,43,0.00,,---,0.00,VWS V15.00,2015-02-28 14:31:00,
2015-02-28 09:36:00,18.5,-0.3,0.00,SSE,157,0.0,0.0,43,0.00,,---,0.00,VWS V15.00,2015-02-28 14:36:00,
2015-02-28 09:41:00,18.7,-0.1,0.00,SSE,163,0.0,0.0,43,0.00,,---,0.00,VWS V15.00,2015-02-28 14:41:00,
2015-02-28 09:46:00,18.7,-0.1,0.00,SE,136,0.0,0.0,43,0.00,,---,0.00,VWS V15.00,2015-02-28 14:46:00,
2015-02-28 09:51:00,19.2,0.4,0.00,NE,48,0.0,0.0,43,0.00,,---,0.00,VWS V15.00,2015-02-28 14:51:00,
2015-02-28 09:56:00,19.6,0.7,0.00,NE,48,0.0,0.0,43,0.00,,---,0.00,VWS V15.00,2015-02-28 14:56:00,
2015-02-28 10:01:00,19.6,0.7,0.00,SSE,167,0.0,3.1,43,0.00,,---,0.00,VWS V15.00,2015-02-28 15:01:00,
2015-02-28 10:06:00,19.8,0.9,0.00,SSE,157,0.0,0.0,43,0.00,,---,0.00,VWS V15.00,2015-02-28 15:06:00,
2015-02-28 10:11:00,19.9,1.1,0.00,SE,143,0.0,0.0,43,0.00,,---,0.00,VWS V15.00,2015-02-28 15:11:00,
2015-02-28 10:16:00,20.1,1.2,0.00,SSE,168,4.0,4.0,43,0.00,,---,0.00,VWS V15.00,2015-02-28 15:16:00,
2015-02-28 10:21:00,20.3,1.4,0.00,SSE,153,3.6,3.6,43,0.00,,---,0.00,VWS V15.00,2015-02-28 15:21:00,
2015-02-28 10:27:00,20.1,1.2,0.00,SSE,165,0.0,0.0,43,0.00,,---,0.00,VWS V15.00,2015-02-28 15:27:00,
2015-02-28 10:32:00,20.3,1.4,0.00,ESE,116,0.0,0.0,43,0.00,,---,0.00,VWS V15.00,2015-02-28 15:32:00,
2015-02-28 10:37:00,20.5,1.5,0.00,East,91,0.0,0.0,43,0.00,,---,0.00,VWS V15.00,2015-02-28 15:37:00,
2015-02-28 10:42:00,20.8,1.9,0.00,East,91,0.0,0.0,43,0.00,,---,0.00,VWS V15.00,2015-02-28 15:42:00,
2015-02-28 10:47:00,20.8,1.9,0.00,East,91,0.0,0.0,43,0.00,,---,0.00,VWS V15.00,2015-02-28 15:47:00,
2015-02-28 10:52:00,21.6,2.0,0.00,East,99,0.0,0.0,42,0.00,,---,0.00,VWS V15.00,2015-02-28 15:52:00,
2015-02-28 10:57:00,21.4,1.9,0.00,East,99,0.0,0.0,42,0.00,,---,0.00,VWS V15.00,2015-02-28 15:57:00,
2015-02-28 11:02:00,22.1,2.5,0.00,East,89,0.0,0.0,42,0.00,,---,0.00,VWS V15.00,2015-02-28 16:02:00,
2015-02-28 11:07:00,22.1,2.5,0.00,ESE,123,0.0,0.0,42,0.00,,---,0.00,VWS V15.00,2015-02-28 16:07:00,
2015-02-28 11:12:00,21.7,2.2,0.00,SSE,161,0.0,0.0,42,0.00,,---,0.00,VWS V15.00,2015-02-28 16:12:00,
2015-02-28 11:17:00,21.7,2.2,0.00,ENE,70,0.0,0.0,42,0.00,,---,0.00,VWS V15.00,2015-02-28 16:17:00,
2015-02-28 11:22:00,21.9,2.4,0.00,NE,37,0.0,0.0,42,0.00,,---,0.00,VWS V15.00,2015-02-28 16:22:00,
2015-02-28 11:27:00,21.9,2.4,0.00,South,170,0.0,0.0,42,0.00,,---,0.00,VWS V15.00,2015-02-28 16:27:00,
2015-02-28 11:32:00,22.3,2.7,0.00,SE,144,2.2,2.2,42,0.00,,---,0.00,VWS V15.00,2015-02-28 16:32:00,
2015-02-28 11:37:00,22.8,3.2,0.00,East,93,0.0,0.0,42,0.00,,---,0.00,VWS V15.00,2015-02-28 16:37:00,
2015-02-28 11:42:00,22.8,3.2,0.00,North,7,0.0,0.0,42,0.00,,---,0.00,VWS V15.00,2015-02-28 16:42:00,
2015-02-28 11:47:00,23.5,3.8,0.00,SSE,153,0.0,0.0,42,0.00,,---,0.00,VWS V15.00,2015-02-28 16:47:00,
2015-02-28 11:53:00,23.5,3.8,0.00,North,11,0.0,0.0,42,0.00,,---,0.00,VWS V15.00,2015-02-28 16:53:00,
2015-02-28 11:58:00,24.1,4.3,0.00,SSE,159,0.0,0.0,42,0.00,,---,0.00,VWS V15.00,2015-02-28 16:58:00,
2015-02-28 12:03:00,24.1,4.3,0.00,ESE,113,0.0,0.0,42,0.00,,---,0.00,VWS V15.00,2015-02-28 17:03:00,
2015-02-28 12:08:00,24.3,4.5,0.00,SSE,163,0.0,0.0,42,0.00,,---,0.00,VWS V15.00,2015-02-28 17:08:00,
2015-02-28 12:13:00,24.3,4.5,0.00,ESE,110,0.0,0.0,42,0.00,,---,0.00,VWS V15.00,2015-02-28 17:13:00,
2015-02-28 12:18:00,24.1,4.3,0.00,North,8,0.0,0.0,42,0.00,,---,0.00,VWS V15.00,2015-02-28 17:18:00,
2015-02-28 12:23:00,25.0,5.1,0.00,NNE,15,0.0,0.0,42,0.00,,---,0.00,VWS V15.00,2015-02-28 17:23:00,
2015-02-28 12:28:00,25.0,5.1,0.00,ENE,63,0.0,0.0,42,0.00,,---,0.00,VWS V15.00,2015-02-28 17:28:00,
2015-02-28 12:33:00,27.9,7.2,0.00,NE,37,0.0,0.0,41,0.00,,---,0.00,VWS V15.00,2015-02-28 17:33:00,
2015-02-28 12:38:00,26.4,6.4,0.00,SE,145,0.0,0.0,42,0.00,,---,0.00,VWS V15.00,2015-02-28 17:38:00,
2015-02-28 12:43:00,26.1,6.1,0.00,SE,145,0.0,0.0,42,0.00,,---,0.00,VWS V15.00,2015-02-28 17:43:00,
2015-02-28 12:48:00,26.1,6.1,0.00,SSE,165,0.0,0.0,42,0.00,,---,0.00,VWS V15.00,2015-02-28 17:48:00,
2015-02-28 12:53:00,26.2,6.3,0.00,SSE,165,0.0,0.0,42,0.00,,---,0.00,VWS V15.00,2015-02-28 17:53:00,
2015-02-28 12:59:00,27.3,6.7,0.00,SE,143,2.7,2.7,41,0.00,,---,0.00,VWS V15.00,2015-02-28 17:59:00,
2015-02-28 13:04:00,27.0,6.4,0.00,North,6,0.0,0.0,41,0.00,,---,0.00,VWS V15.00,2015-02-28 18:04:00,
2015-02-28 13:09:00,26.8,6.2,0.00,SSE,160,0.0,0.0,41,0.00,,---,0.00,VWS V15.00,2015-02-28 18:09:00,
2015-02-28 13:14:00,27.0,6.4,0.00,NNE,29,2.7,2.7,41,0.00,,---,0.00,VWS V15.00,2015-02-28 18:14:00,
2015-02-28 13:19:00,27.0,6.4,0.00,SSE,163,0.0,0.0,41,0.00,,---,0.00,VWS V15.00,2015-02-28 18:19:00,
2015-02-28 13:24:00,27.3,6.7,0.00,SSE,163,0.0,0.0,41,0.00,,---,0.00,VWS V15.00,2015-02-28 18:24:00,
2015-02-28 13:30:00,27.7,7.1,0.00,SSE,163,0.0,0.0,41,0.00,,---,0.00,VWS V15.00,2015-02-28 18:30:00,
2015-02-28 13:35:00,27.9,7.2,0.00,ESE,117,0.0,0.0,41,0.00,,---,0.00,VWS V15.00,2015-02-28 18:35:00,
2015-02-28 13:40:00,27.7,7.1,0.00,NE,45,0.0,0.0,41,0.00,,---,0.00,VWS V15.00,2015-02-28 18:40:00,
2015-02-28 13:45:00,29.7,8.9,0.00,East,87,0.0,0.0,41,0.00,,---,0.00,VWS V15.00,2015-02-28 18:45:00,
2015-02-28 13:50:00,29.3,8.5,0.00,East,87,0.0,0.0,41,0.00,,---,0.00,VWS V15.00,2015-02-28 18:50:00,
2015-02-28 13:55:00,29.8,9.0,0.00,SE,138,2.2,2.2,41,0.00,,---,0.00,VWS V15.00,2015-02-28 18:55:00,
2015-02-28 14:00:00,29.8,9.0,0.00,NNE,19,0.0,0.0,41,0.00,,---,0.00,VWS V15.00,2015-02-28 19:00:00,
2015-02-28 14:06:00,29.3,8.5,0.00,ESE,120,0.0,0.0,41,0.00,,---,0.00,VWS V15.00,2015-02-28 19:06:00,
2015-02-28 14:11:00,27.9,7.2,0.00,East,96,0.0,0.0,41,0.00,,---,0.00,VWS V15.00,2015-02-28 19:11:00,
2015-02-28 14:16:00,27.7,7.1,0.00,ESE,122,0.0,0.0,41,0.00,,---,0.00,VWS V15.00,2015-02-28 19:16:00,
2015-02-28 14:21:00,27.9,7.2,0.00,ESE,109,0.0,0.0,41,0.00,,---,0.00,VWS V15.00,2015-02-28 19:21:00,
2015-02-28 14:26:00,28.2,7.6,0.00,East,91,0.0,0.0,41,0.00,,---,0.00,VWS V15.00,2015-02-28 19:26:00,
2015-02-28 14:31:00,29.3,8.5,0.00,East,101,0.0,0.0,41,0.00,,---,0.00,VWS V15.00,2015-02-28 19:31:00,
2015-02-28 14:36:00,29.3,8.5,0.00,East,92,0.0,0.0,41,0.00,,---,0.00,VWS V15.00,2015-02-28 19:36:00,
2015-02-28 14:41:00,29.8,9.0,0.00,NE,35,0.0,0.0,41,0.00,,---,0.00,VWS V15.00,2015-02-28 19:41:00,
2015-02-28 14:46:00,28.9,8.2,0.00,East,91,0.0,0.0,41,0.00,,---,0.00,VWS V15.00,2015-02-28 19:46:00,
2015-02-28 14:52:00,28.9,8.2,0.00,ENE,74,0.0,0.0,41,0.00,,---,0.00,VWS V15.00,2015-02-28 19:52:00,
2015-02-28 14:57:00,29.3,8.5,0.00,ESE,122,0.0,0.0,41,0.00,,---,0.00,VWS V15.00,2015-02-28 19:57:00,
2015-02-28 15:02:00,30.2,9.4,0.00,SSE,155,0.0,0.0,41,0.00,,---,0.00,VWS V15.00,2015-02-28 20:02:00,
2015-02-28 15:07:00,30.9,9.4,0.00,SSE,155,0.0,0.0,40,0.00,,---,0.00,VWS V15.00,2015-02-28 20:07:00,
2015-02-28 15:12:00,31.5,9.9,0.00,SSE,155,0.0,0.0,40,0.00,,---,0.00,VWS V15.00,2015-02-28 20:12:00,